Time;durP1;ratioP1;P1;durP2;ratioP2;P2;SDS_P1;SDS_P2;PMS_P1;PMS_P2;Temp;Humidity;BMP_temperature;BMP_pressure;BME280_temperature;BME280_humidity;BME280_pressure;Samples;Min_cycle;Max_cycle;Signal;HPM_P1;HPM_P2
2023/02/14 00:01:53;;;;;;;75.88;28.90;;;;;;;2.00;92.17;103707.63;6098999;19;20523;-74
2023/02/14 00:04:00;;;;;;;65.57;26.70;;;;;;;1.93;91.86;103716.88;6100055;19;20021;-75
2023/02/14 00:06:09;;;;;;;72.10;27.50;;;;;;;1.92;91.90;103711.59;6101465;19;20023;-74
2023/02/14 00:08:14;;;;;;;71.35;30.02;;;;;;;1.99;92.89;103711.03;6100454;19;20078;-74
2023/02/14 00:10:19;;;;;;;74.85;31.42;;;;;;;1.96;92.22;103705.75;6097821;19;20368;-74
2023/02/14 00:12:26;;;;;;;66.90;28.65;;;;;;;1.96;92.30;103710.91;6101547;19;20375;-74
2023/02/14 00:16:51;;;;;;;67.32;28.13;;;;;;;1.94;92.75;103709.97;6097604;19;20002;-74
2023/02/14 00:19:05;;;;;;;67.82;28.65;;;;;;;1.90;92.31;103702.91;6098638;19;20053;-74
2023/02/14 00:21:10;;;;;;;89.20;30.88;;;;;;;1.96;93.11;103708.31;6101376;19;20377;-74
2023/02/14 00:23:15;;;;;;;79.13;31.10;;;;;;;1.98;92.64;103709.28;6100063;19;20050;-74
2023/02/14 00:25:20;;;;;;;77.82;28.80;;;;;;;2.00;93.43;103698.97;6105064;19;20547;-75
2023/02/14 00:27:25;;;;;;;75.70;28.52;;;;;;;2.02;93.50;103690.41;6094418;19;20035;-75
2023/02/14 00:29:37;;;;;;;78.90;32.80;;;;;;;2.08;93.84;103693.28;6102673;19;20011;-75
2023/02/14 00:31:43;;;;;;;75.88;31.45;;;;;;;2.09;93.60;103684.66;6099931;19;20026;-74
2023/02/14 00:33:48;;;;;;;75.57;31.80;;;;;;;2.12;93.86;103689.09;6101091;19;20010;-74
2023/02/14 00:35:53;;;;;;;73.13;29.05;;;;;;;2.06;92.73;103684.53;6101089;19;20018;-73
2023/02/14 00:37:58;;;;;;;80.32;33.13;;;;;;;2.05;94.06;103679.28;6098893;19;20010;-75
2023/02/14 00:40:03;;;;;;;72.68;31.92;;;;;;;1.97;93.40;103682.47;6099534;19;20024;-75
2023/02/14 00:42:12;;;;;;;85.60;31.52;;;;;;;1.92;92.98;103686.59;6099804;19;20011;-75
2023/02/14 00:44:17;;;;;;;78.68;29.90;;;;;;;1.91;93.62;103683.91;6099376;19;20014;-73
2023/02/14 00:46:26;;;;;;;77.78;29.08;;;;;;;1.91;94.06;103684.78;6098829;19;20024;-73
2023/02/14 00:48:31;;;;;;;87.22;31.92;;;;;;;1.92;94.31;103678.81;6099141;19;20014;-74
2023/02/14 00:50:36;;;;;;;72.18;29.73;;;;;;;1.86;92.92;103677.66;6101814;19;20043;-75
2023/02/14 00:52:42;;;;;;;82.32;31.95;;;;;;;1.86;93.15;103678.53;6096956;19;20523;-73
2023/02/14 00:54:49;;;;;;;73.20;31.08;;;;;;;1.90;94.41;103680.44;6099263;19;20013;-74
2023/02/14 00:56:55;;;;;;;66.10;28.52;;;;;;;1.85;92.87;103674.19;6101280;19;20010;-74
2023/02/14 00:59:00;;;;;;;63.05;27.15;;;;;;;1.84;93.37;103682.75;6098124;19;20015;-76
2023/02/14 01:01:05;;;;;;;69.05;29.13;;;;;;;1.82;93.49;103679.25;6100699;19;20039;-74
2023/02/14 01:03:13;;;;;;;72.68;28.63;;;;;;;1.82;93.35;103678.34;6094237;19;20010;-74
2023/02/14 01:05:18;;;;;;;73.60;31.42;;;;;;;1.83;94.07;103667.16;6100114;19;20039;-74
2023/02/14 01:07:23;;;;;;;76.40;32.95;;;;;;;1.85;94.89;103662.94;6094668;19;20515;-74
2023/02/14 01:09:28;;;;;;;77.88;30.33;;;;;;;1.82;94.78;103662.78;6098591;19;20010;-74
2023/02/14 01:11:33;;;;;;;69.72;30.17;;;;;;;1.81;94.54;103669.69;6100182;19;20074;-74
2023/02/14 01:13:40;;;;;;;80.63;31.48;;;;;;;1.78;94.36;103658.31;6096092;19;20017;-75
2023/02/14 01:15:50;;;;;;;73.90;29.52;;;;;;;1.74;93.82;103667.69;6099856;19;20003;-75
2023/02/14 01:17:55;;;;;;;63.97;25.92;;;;;;;1.72;93.69;103672.78;6099287;19;20570;-75
2023/02/14 01:20:08;;;;;;;74.00;30.20;;;;;;;1.68;93.23;103665.69;6099841;19;20114;-75
2023/02/14 01:22:13;;;;;;;83.68;32.42;;;;;;;1.68;94.60;103667.41;6100202;19;20022;-75
2023/02/14 01:24:18;;;;;;;76.25;32.60;;;;;;;1.64;94.60;103657.75;6104842;19;20018;-75
2023/02/14 01:26:24;;;;;;;74.38;29.00;;;;;;;1.58;93.54;103660.06;6104399;19;20006;-74
2023/02/14 01:28:29;;;;;;;67.75;27.02;;;;;;;1.54;93.14;103662.53;6105363;19;20011;-74
2023/02/14 01:30:35;;;;;;;70.30;27.25;;;;;;;1.50;92.97;103657.13;6105159;19;20022;-73
2023/02/14 01:32:41;;;;;;;72.90;28.98;;;;;;;1.47;93.16;103660.47;6104427;19;20023;-74
2023/02/14 01:34:46;;;;;;;70.85;29.33;;;;;;;1.47;93.65;103657.00;6103515;19;20019;-73
2023/02/14 01:36:54;;;;;;;61.10;26.55;;;;;;;1.47;93.76;103663.06;6103760;19;20102;-72
2023/02/14 01:39:01;;;;;;;64.40;27.13;;;;;;;1.46;93.27;103661.31;6106763;19;20023;-74
2023/02/14 01:41:07;;;;;;;65.30;27.23;;;;;;;1.43;93.31;103665.50;6104715;19;20007;-73
2023/02/14 01:43:16;;;;;;;65.07;28.17;;;;;;;1.43;93.45;103660.31;6102921;19;20019;-75
2023/02/14 01:45:24;;;;;;;71.82;27.83;;;;;;;1.42;93.69;103666.28;6099795;19;20070;-73
2023/02/14 01:47:32;;;;;;;74.32;29.90;;;;;;;1.39;93.93;103658.41;6106990;19;20011;-73
2023/02/14 01:49:42;;;;;;;61.00;26.23;;;;;;;1.35;93.61;103653.91;6108861;19;20644;-74
2023/02/14 01:51:54;;;;;;;56.72;25.52;;;;;;;1.30;93.15;103662.38;6107129;19;20581;-74
2023/02/14 01:54:03;;;;;;;67.05;27.63;;;;;;;1.33;93.43;103660.72;6105031;19;20042;-74
2023/02/14 01:56:16;;;;;;;65.35;27.23;;;;;;;1.31;93.53;103663.25;6107794;19;20020;-75
2023/02/14 01:58:25;;;;;;;74.40;27.75;;;;;;;1.31;93.94;103665.84;6107009;19;20420;-75
2023/02/14 02:02:49;;;;;;;69.90;27.77;;;;;;;1.29;94.01;103663.19;6103752;19;20011;-74
2023/02/14 02:04:57;;;;;;;61.28;25.63;;;;;;;1.26;93.40;103662.16;6107774;19;20014;-73
2023/02/14 02:07:07;;;;;;;59.35;25.80;;;;;;;1.25;93.59;103663.88;6107135;19;20140;-73
2023/02/14 02:09:20;;;;;;;68.72;26.15;;;;;;;1.22;93.12;103663.75;6107071;19;20190;-73
2023/02/14 02:11:25;;;;;;;58.08;25.58;;;;;;;1.19;93.04;103658.44;6102370;19;20031;-73
2023/02/14 02:13:30;;;;;;;68.22;28.35;;;;;;;1.18;93.65;103656.63;6105732;19;20009;-73
2023/02/14 02:15:43;;;;;;;59.75;26.48;;;;;;;1.14;93.35;103654.75;6104823;19;20477;-73
2023/02/14 02:17:58;;;;;;;74.18;28.60;;;;;;;1.10;93.70;103653.72;6105074;19;20019;-73
2023/02/14 02:20:38;;;;;;;71.95;27.95;;;;;;;1.09;93.87;103656.25;6105507;19;20019;-74
2023/02/14 02:23:15;;;;;;;68.72;26.63;;;;;;;1.07;93.77;103655.28;6103560;19;20014;-73
2023/02/14 02:25:41;;;;;;;76.85;31.58;;;;;;;1.04;94.00;103658.63;6104596;19;20511;-73
2023/02/14 02:28:16;;;;;;;80.68;28.70;;;;;;;1.03;93.80;103656.00;6099241;19;20102;-75
2023/02/14 02:30:51;;;;;;;66.80;26.40;;;;;;;1.03;93.58;103651.69;6106189;19;20007;-75
2023/02/14 02:33:38;;;;;;;68.72;27.98;;;;;;;1.02;93.97;103656.78;6105867;19;20010;-75
2023/02/14 02:36:10;;;;;;;78.57;29.77;;;;;;;0.99;93.99;103651.47;6101068;19;20030;-73
2023/02/14 02:38:30;;;;;;;79.03;30.15;;;;;;;0.97;94.40;103646.22;6101839;19;20014;-74
2023/02/14 02:40:48;;;;;;;72.50;29.40;;;;;;;0.92;93.70;103646.84;6104721;19;20007;-74
2023/02/14 02:43:03;;;;;;;77.40;28.48;;;;;;;0.91;94.11;103642.50;6101009;19;20014;-74
2023/02/14 02:45:16;;;;;;;69.05;28.10;;;;;;;0.87;93.63;103651.84;6103292;19;20547;-73
2023/02/14 02:47:29;;;;;;;75.57;30.55;;;;;;;0.84;93.60;103642.22;6099972;19;20044;-74
2023/02/14 02:54:36;;;;;;;67.00;25.52;;;;;;;0.85;94.27;103644.00;6103420;19;20025;-75
2023/02/14 02:56:45;;;;;;;67.93;27.20;;;;;;;0.86;94.35;103634.50;6104384;19;20397;-73
2023/02/14 02:58:54;;;;;;;59.35;26.67;;;;;;;0.84;94.01;103631.88;6103678;19;20007;-73
2023/02/14 03:01:03;;;;;;;63.22;27.65;;;;;;;0.90;94.77;103631.25;6102052;19;20442;-75
2023/02/14 03:05:27;;;;;;;70.07;28.88;;;;;;;0.98;95.20;103636.78;6099330;19;20011;-74
2023/02/14 03:07:40;;;;;;;72.28;30.08;;;;;;;0.95;94.96;103634.94;6099356;19;20094;-75
2023/02/14 03:09:53;;;;;;;62.17;25.55;;;;;;;0.96;95.00;103633.22;6103100;19;20014;-75
2023/02/14 03:12:11;;;;;;;65.57;26.40;;;;;;;0.98;95.05;103627.31;6100727;19;20025;-74
2023/02/14 03:14:22;;;;;;;67.35;28.67;;;;;;;1.00;94.60;103625.66;6101557;19;20422;-75
2023/02/14 03:16:36;;;;;;;71.28;31.80;;;;;;;1.10;95.13;103629.53;6100965;19;20121;-74
2023/02/14 03:21:22;;;;;;;71.68;25.75;;;;;;;0.98;93.98;103636.78;6103019;19;20010;-75
2023/02/14 03:23:36;;;;;;;63.88;28.60;;;;;;;0.94;94.17;103637.44;6098133;19;20018;-74
2023/02/14 03:25:48;;;;;;;65.63;26.92;;;;;;;0.88;94.48;103631.19;6102568;19;20012;-73
2023/02/14 03:28:00;;;;;;;64.93;26.02;;;;;;;0.85;94.30;103638.81;6101283;19;20010;-75
2023/02/14 03:30:15;;;;;;;53.63;23.38;;;;;;;0.83;94.65;103640.44;6103606;19;20575;-75
2023/02/14 03:32:29;;;;;;;77.55;28.65;;;;;;;0.78;94.52;103638.47;6103889;19;20098;-75
2023/02/14 03:34:48;;;;;;;68.05;26.77;;;;;;;0.74;94.12;103637.47;6102723;19;20515;-75
2023/02/14 03:36:58;;;;;;;65.90;25.27;;;;;;;0.70;94.33;103632.94;6103829;19;20015;-75
2023/02/14 03:39:11;;;;;;;78.38;30.25;;;;;;;0.71;94.50;103639.91;6103672;19;20022;-75
2023/02/14 03:41:22;;;;;;;64.20;25.95;;;;;;;0.68;94.17;103641.44;6102856;19;20010;-75
2023/02/14 03:43:32;;;;;;;67.38;26.17;;;;;;;0.65;94.51;103632.72;6100592;19;20027;-75
2023/02/14 03:45:44;;;;;;;63.22;26.42;;;;;;;0.61;93.99;103632.53;6100909;19;20014;-75
2023/02/14 03:47:54;;;;;;;75.35;29.92;;;;;;;0.62;94.64;103626.53;6101096;19;20467;-74
2023/02/14 03:50:06;;;;;;;69.85;28.20;;;;;;;0.59;94.16;103636.75;6096473;19;20002;-74
2023/02/14 03:52:17;;;;;;;57.67;24.27;;;;;;;0.55;93.96;103624.47;6101581;19;20626;-73
2023/02/14 03:54:27;;;;;;;67.25;26.65;;;;;;;0.55;94.25;103624.47;6099360;19;20870;-74
2023/02/14 03:56:40;;;;;;;54.63;23.20;;;;;;;0.54;94.56;103630.47;6100111;19;20003;-76
2023/02/14 03:58:49;;;;;;;61.72;22.70;;;;;;;0.52;94.05;103629.53;6101822;19;20027;-74
2023/02/14 04:00:59;;;;;;;72.45;28.38;;;;;;;0.49;94.04;103629.38;6099340;19;20323;-74
2023/02/14 04:03:17;;;;;;;60.42;26.17;;;;;;;0.49;94.35;103625.09;6101259;19;20612;-75
2023/02/14 04:05:26;;;;;;;65.80;24.92;;;;;;;0.50;94.49;103620.78;6100151;19;20424;-75
2023/02/14 04:07:31;;;;;;;70.22;26.13;;;;;;;0.48;94.12;103618.16;6100631;19;20547;-74
2023/02/14 04:09:39;;;;;;;60.92;25.92;;;;;;;0.49;94.17;103619.03;6096209;19;20500;-73
2023/02/14 04:11:45;;;;;;;54.83;23.75;;;;;;;0.48;94.11;103612.97;6102707;19;20027;-73
2023/02/14 04:13:50;;;;;;;59.08;25.98;;;;;;;0.49;94.80;103608.69;6101383;19;20010;-75
2023/02/14 04:15:54;;;;;;;60.75;27.10;;;;;;;0.50;94.57;103615.63;6102235;19;20027;-76
2023/02/14 04:20:20;;;;;;;60.20;25.63;;;;;;;0.46;95.07;103614.59;6104548;19;20010;-73
2023/02/14 04:22:25;;;;;;;61.38;25.98;;;;;;;0.47;94.63;103615.47;6101621;19;20018;-73
2023/02/14 04:24:30;;;;;;;57.10;27.15;;;;;;;0.44;94.61;103617.09;6103329;19;20348;-75
2023/02/14 04:26:38;;;;;;;60.92;26.95;;;;;;;0.43;94.02;103614.47;6104166;19;20017;-75
2023/02/14 04:28:43;;;;;;;55.40;23.80;;;;;;;0.43;94.04;103615.34;6101307;19;20039;-72
2023/02/14 04:30:48;;;;;;;60.13;25.15;;;;;;;0.40;94.24;103622.09;6104190;19;20014;-72
2023/02/14 04:32:53;;;;;;;60.80;26.58;;;;;;;0.41;94.70;103622.16;6103470;19;20010;-73
2023/02/14 04:34:58;;;;;;;56.38;24.55;;;;;;;0.37;94.14;103622.84;6104527;19;20018;-74
2023/02/14 04:37:03;;;;;;;59.40;26.25;;;;;;;0.36;93.90;103620.16;6102760;19;20015;-74
2023/02/14 04:39:08;;;;;;;54.90;24.70;;;;;;;0.38;94.36;103621.13;6103251;19;20412;-72
2023/02/14 04:41:13;;;;;;;63.33;27.13;;;;;;;0.47;95.29;103618.94;6101745;19;20794;-74
2023/02/14 04:43:21;;;;;;;69.53;25.40;;;;;;;0.49;95.43;103617.31;6103852;19;20003;-74
2023/02/14 04:45:26;;;;;;;61.50;26.80;;;;;;;0.46;95.29;103614.59;6104512;19;20042;-74
2023/02/14 04:47:31;;;;;;;70.65;26.77;;;;;;;0.54;96.14;103617.53;6096235;19;20018;-73
2023/02/14 04:49:36;;;;;;;66.55;26.95;;;;;;;0.53;95.69;103620.97;6099121;19;20738;-74
2023/02/14 04:51:41;;;;;;;74.75;30.58;;;;;;;0.61;96.22;103623.06;6098532;19;20014;-75
2023/02/14 04:53:50;;;;;;;74.88;31.45;;;;;;;0.59;96.19;103619.53;6098466;19;20022;-74
2023/02/14 04:55:55;;;;;;;68.15;26.13;;;;;;;0.59;95.87;103616.06;6099720;19;20086;-75
2023/02/14 04:58:00;;;;;;;68.97;25.25;;;;;;;0.58;95.99;103620.34;6101185;19;20010;-75
2023/02/14 05:00:09;;;;;;;76.35;31.65;;;;;;;0.56;96.14;103616.81;6098453;19;20502;-75
2023/02/14 05:02:17;;;;;;;59.15;24.88;;;;;;;0.48;95.39;103622.44;6099924;19;20043;-74
2023/02/14 05:04:23;;;;;;;59.63;24.73;;;;;;;0.41;95.35;103621.25;6099847;19;20126;-74
2023/02/14 05:06:28;;;;;;;66.38;25.42;;;;;;;0.43;95.39;103630.00;6098897;19;20007;-73
2023/02/14 05:08:33;;;;;;;57.03;24.75;;;;;;;0.41;95.14;103626.44;6099956;19;20038;-74
2023/02/14 05:10:39;;;;;;;76.75;32.22;;;;;;;0.44;95.81;103618.81;6097532;19;21151;-75
2023/02/14 05:12:47;;;;;;;81.88;31.63;;;;;;;0.43;96.20;103620.53;6099639;19;20025;-74
2023/02/14 05:14:51;;;;;;;72.38;27.35;;;;;;;0.36;95.56;103615.00;6099114;19;20091;-75
2023/02/14 05:16:59;;;;;;;70.30;27.65;;;;;;;0.32;95.27;103619.16;6099835;19;20021;-75
2023/02/14 05:19:05;;;;;;;65.28;26.45;;;;;;;0.31;95.42;103622.53;6100132;19;20029;-75
2023/02/14 05:21:10;;;;;;;46.92;22.33;;;;;;;0.28;95.26;103624.09;6100634;19;20086;-76
2023/02/14 05:23:15;;;;;;;56.58;24.50;;;;;;;0.27;95.24;103622.34;6099636;19;20042;-74
2023/02/14 05:25:20;;;;;;;70.63;27.13;;;;;;;0.26;95.54;103628.31;6101816;19;20760;-74
2023/02/14 05:27:25;;;;;;;79.28;28.65;;;;;;;0.26;95.84;103621.44;6101255;19;20415;-74
2023/02/14 05:29:30;;;;;;;66.45;27.67;;;;;;;0.31;96.37;103619.94;6100050;19;20016;-73
2023/02/14 05:31:35;;;;;;;67.70;26.70;;;;;;;0.17;95.19;103618.44;6095213;19;20014;-73
2023/02/14 05:33:43;;;;;;;66.78;28.63;;;;;;;0.14;94.97;103620.88;6099574;19;20074;-73
2023/02/14 05:35:51;;;;;;;54.42;25.60;;;;;;;0.14;95.04;103615.69;6100098;19;20122;-73
2023/02/14 05:37:56;;;;;;;53.72;25.42;;;;;;;0.13;95.30;103607.06;6099236;19;20006;-74
2023/02/14 05:40:06;;;;;;;51.15;25.50;;;;;;;0.10;95.21;103613.78;6100429;19;20054;-74
2023/02/14 05:42:11;;;;;;;45.15;21.05;;;;;;;0.07;94.80;103614.50;6098189;19;20015;-73
2023/02/14 05:44:16;;;;;;;50.92;23.20;;;;;;;0.11;95.26;103612.97;6097741;19;20033;-74
2023/02/14 05:46:21;;;;;;;50.72;23.90;;;;;;;0.09;94.86;103612.91;6098649;19;20090;-74
2023/02/14 05:48:26;;;;;;;53.90;24.13;;;;;;;0.16;95.88;103614.09;6102146;19;20007;-73
2023/02/14 05:50:35;;;;;;;59.28;24.92;;;;;;;0.14;95.54;103605.34;6097826;19;20248;-75
2023/02/14 05:52:40;;;;;;;54.95;24.13;;;;;;;0.21;95.79;103612.56;6093982;19;20588;-75
2023/02/14 05:54:45;;;;;;;52.58;22.52;;;;;;;0.21;95.59;103607.41;6097584;19;20450;-75
2023/02/14 05:56:51;;;;;;;52.28;23.27;;;;;;;0.18;95.47;103617.59;6099054;19;20015;-76
2023/02/14 05:58:56;;;;;;;44.33;20.90;;;;;;;0.17;95.57;103610.66;6097507;19;20010;-75
2023/02/14 06:01:01;;;;;;;62.35;23.05;;;;;;;0.17;95.93;103605.50;6098578;19;20034;-74
2023/02/14 06:03:06;;;;;;;50.55;21.88;;;;;;;0.19;96.20;103611.63;6098101;19;20039;-75
2023/02/14 06:05:11;;;;;;;48.53;20.85;;;;;;;0.16;95.96;103603.75;6096525;19;20486;-76
2023/02/14 06:07:19;;;;;;;68.63;25.90;;;;;;;0.32;97.12;103605.34;6097987;19;20015;-75
2023/02/14 06:09:24;;;;;;;51.20;22.02;;;;;;;0.20;96.22;103601.34;6097135;19;20127;-74
2023/02/14 06:11:29;;;;;;;56.42;24.70;;;;;;;0.13;95.85;103607.06;6105388;19;20024;-73
2023/02/14 06:13:35;;;;;;;49.03;23.15;;;;;;;0.14;95.92;103600.19;6103495;19;20377;-75
2023/02/14 06:15:40;;;;;;;63.67;24.98;;;;;;;0.16;96.08;103599.44;6098899;19;20703;-73
2023/02/14 06:17:45;;;;;;;55.95;26.42;;;;;;;0.16;96.21;103606.31;6100570;19;20015;-75
2023/02/14 06:19:53;;;;;;;45.05;21.33;;;;;;;0.16;95.96;103608.91;6103214;19;20367;-74
2023/02/14 06:21:58;;;;;;;49.25;22.75;;;;;;;0.19;96.65;103599.59;6104035;19;20013;-75
2023/02/14 06:24:06;;;;;;;53.17;23.85;;;;;;;0.17;96.48;103605.50;6080489;19;20474;-75
2023/02/14 06:26:11;;;;;;;48.90;22.73;;;;;;;0.16;96.33;103611.50;6098377;19;20018;-75
2023/02/14 06:28:16;;;;;;;51.78;24.20;;;;;;;0.16;96.84;103606.31;6081830;19;20010;-76
2023/02/14 06:30:21;;;;;;;46.20;21.20;;;;;;;0.08;96.08;103600.78;6102496;19;20377;-75
2023/02/14 06:32:26;;;;;;;52.95;23.00;;;;;;;0.13;96.49;103609.66;6106310;19;20014;-74
2023/02/14 06:34:31;;;;;;;46.10;21.85;;;;;;;0.09;96.29;103607.72;6106109;19;20014;-75
2023/02/14 06:36:36;;;;;;;50.03;22.70;;;;;;;0.14;96.52;103607.94;6079728;19;20042;-75
2023/02/14 06:38:40;;;;;;;47.40;21.52;;;;;;;0.15;96.37;103604.53;6081565;19;20508;-75
2023/02/14 06:40:48;;;;;;;47.13;21.33;;;;;;;0.15;96.19;103613.16;6100396;19;20078;-74
2023/02/14 06:42:53;;;;;;;45.10;19.67;;;;;;;0.11;96.06;103611.28;6104463;19;20014;-74
2023/02/14 06:44:58;;;;;;;45.22;21.33;;;;;;;0.11;96.14;103605.22;6105437;19;20006;-75
2023/02/14 06:47:03;;;;;;;43.35;19.83;;;;;;;0.10;96.07;103608.59;6082620;19;20013;-75
2023/02/14 06:49:08;;;;;;;43.05;20.25;;;;;;;0.14;96.97;103610.53;6106264;19;20561;-76
2023/02/14 06:51:13;;;;;;;44.35;19.05;;;;;;;0.07;96.33;103608.47;6102338;19;20031;-74
2023/02/14 06:53:18;;;;;;;43.53;20.63;;;;;;;0.16;96.20;103606.31;6094709;19;20007;-76
2023/02/14 06:55:23;;;;;;;41.05;20.35;;;;;;;0.17;96.11;103605.50;6103396;19;20007;-76
2023/02/14 06:57:31;;;;;;;40.33;20.33;;;;;;;0.21;96.39;103607.41;6103862;19;20595;-74
2023/02/14 06:59:36;;;;;;;40.65;19.25;;;;;;;0.22;96.43;103602.31;6104566;19;20011;-73
2023/02/14 07:01:41;;;;;;;51.78;23.70;;;;;;;0.27;96.83;103604.25;6099451;19;20504;-74
2023/02/14 07:03:46;;;;;;;40.58;19.85;;;;;;;0.26;96.43;103605.91;6105121;19;20773;-74
2023/02/14 07:05:52;;;;;;;46.25;20.65;;;;;;;0.24;96.06;103610.16;6101894;19;20501;-73
2023/02/14 07:07:56;;;;;;;50.45;22.40;;;;;;;0.18;96.17;103610.72;6100583;19;20081;-73
2023/02/14 07:10:01;;;;;;;39.55;21.08;;;;;;;0.16;95.96;103614.09;6100248;19;20535;-74
2023/02/14 07:12:06;;;;;;;38.67;19.65;;;;;;;0.15;96.22;103613.16;6102708;19;20015;-73
2023/02/14 07:14:15;;;;;;;48.85;21.60;;;;;;;0.18;96.24;103612.44;6101945;19;20007;-75
2023/02/14 07:16:20;;;;;;;45.45;21.20;;;;;;;0.16;95.97;103617.56;6102532;19;20021;-75
2023/02/14 07:18:24;;;;;;;36.30;20.02;;;;;;;0.15;96.00;103627.81;6104035;19;20090;-74
2023/02/14 07:20:29;;;;;;;36.08;19.02;;;;;;;0.18;96.25;103617.59;6103868;19;20035;-75
2023/02/14 07:22:37;;;;;;;41.17;20.13;;;;;;;0.19;96.22;103619.38;6100058;19;20503;-75
2023/02/14 07:24:41;;;;;;;50.22;22.88;;;;;;;0.19;96.13;103615.09;6103846;19;20019;-75
2023/02/14 07:26:50;;;;;;;42.60;20.77;;;;;;;0.22;96.33;103629.88;6100624;19;20342;-74
2023/02/14 07:28:54;;;;;;;35.85;18.50;;;;;;;0.19;96.07;103624.56;6101743;19;20039;-74
2023/02/14 07:31:05;;;;;;;35.92;17.95;;;;;;;0.15;95.79;103626.09;6100539;19;20007;-75
2023/02/14 07:33:11;;;;;;;38.90;18.17;;;;;;;0.18;95.86;103623.66;6101605;19;20042;-75
2023/02/14 07:35:15;;;;;;;41.83;22.00;;;;;;;0.19;95.83;103629.72;6102008;19;20010;-75
2023/02/14 07:37:21;;;;;;;43.38;22.70;;;;;;;0.21;96.20;103626.41;6101121;19;20522;-75
2023/02/14 07:39:26;;;;;;;46.45;22.40;;;;;;;0.22;95.94;103627.28;6102955;19;20040;-75
2023/02/14 07:41:31;;;;;;;43.42;19.90;;;;;;;0.19;95.76;103627.16;6103219;19;20521;-75
2023/02/14 07:43:35;;;;;;;39.63;19.33;;;;;;;0.18;95.51;103623.66;6102083;19;20407;-74
2023/02/14 07:45:40;;;;;;;32.45;17.25;;;;;;;0.18;95.42;103618.47;6101688;19;20007;-74
2023/02/14 07:47:53;;;;;;;40.50;20.08;;;;;;;0.22;95.85;103622.13;6095188;19;20498;-74
2023/02/14 07:50:01;;;;;;;33.03;17.30;;;;;;;0.23;95.62;103626.47;6100311;19;20103;-74
2023/02/14 07:52:06;;;;;;;41.70;20.20;;;;;;;0.26;95.79;103623.13;6100908;19;20013;-73
2023/02/14 07:54:11;;;;;;;41.90;20.45;;;;;;;0.26;95.79;103615.38;6098164;19;20268;-73
2023/02/14 07:56:16;;;;;;;38.88;19.00;;;;;;;0.33;95.89;103620.03;6097008;19;20042;-74
2023/02/14 07:58:21;;;;;;;36.45;18.33;;;;;;;0.31;95.51;103619.06;6099980;19;20043;-73
2023/02/14 08:00:26;;;;;;;39.20;21.13;;;;;;;0.35;95.88;103614.13;6101811;19;20018;-73
2023/02/14 08:02:31;;;;;;;40.03;21.80;;;;;;;0.41;95.82;103624.72;6099927;19;20003;-74
2023/02/14 08:04:38;;;;;;;48.33;22.58;;;;;;;0.52;96.48;103624.34;6100335;19;20294;-74
2023/02/14 08:06:46;;;;;;;41.08;19.55;;;;;;;0.56;95.96;103629.72;6098229;19;20014;-73
2023/02/14 08:08:51;;;;;;;36.78;20.20;;;;;;;0.59;96.06;103626.41;6095935;19;20011;-73
2023/02/14 08:10:57;;;;;;;44.80;22.45;;;;;;;0.62;95.91;103619.66;6086720;19;20011;-73
2023/02/14 08:13:00;;;;;;;38.95;20.63;;;;;;;0.68;95.99;103625.94;6097240;19;20418;-74
2023/02/14 08:17:24;;;;;;;48.65;23.73;;;;;;;1.06;97.15;103604.34;6103778;19;20034;-75
2023/02/14 08:19:29;;;;;;;50.63;24.63;;;;;;;1.26;97.79;103608.66;6099634;19;20491;-75
2023/02/14 08:21:36;;;;;;;53.58;27.67;;;;;;;1.37;97.18;103618.56;6101527;19;20799;-75
2023/02/14 08:23:41;;;;;;;53.20;26.88;;;;;;;1.49;97.05;103621.69;6097491;19;20077;-76
2023/02/14 08:25:46;;;;;;;53.92;26.65;;;;;;;1.70;97.19;103622.56;6098572;19;20035;-75
2023/02/14 08:27:51;;;;;;;64.90;29.00;;;;;;;2.02;97.89;103616.91;6095461;19;20023;-76
2023/02/14 08:29:56;;;;;;;61.78;27.42;;;;;;;1.97;97.01;103621.91;6102519;19;20010;-75
2023/02/14 08:32:01;;;;;;;58.97;27.23;;;;;;;2.10;97.02;103618.97;6097400;19;20011;-75
2023/02/14 08:34:08;;;;;;;57.70;27.05;;;;;;;2.24;96.92;103627.31;6098951;19;20030;-75
2023/02/14 08:36:13;;;;;;;52.42;26.38;;;;;;;2.45;97.56;103624.66;6098201;19;20444;-76
2023/02/14 08:38:22;;;;;;;68.68;31.25;;;;;;;2.47;97.06;103614.31;6077981;19;20010;-74
2023/02/14 08:40:28;;;;;;;65.30;31.05;;;;;;;2.61;96.96;103611.44;6096081;19;20014;-74
2023/02/14 08:42:33;;;;;;;64.10;30.30;;;;;;;2.80;96.95;103614.69;6098625;19;20018;-74
2023/02/14 08:44:38;;;;;;;59.47;30.15;;;;;;;2.81;96.59;103606.94;6094379;19;20455;-74
2023/02/14 08:46:43;;;;;;;58.85;28.70;;;;;;;2.79;96.39;103612.91;6095377;19;20014;-74
2023/02/14 08:48:48;;;;;;;74.75;34.30;;;;;;;3.18;96.65;103604.78;6098815;19;20047;-74
2023/02/14 08:50:54;;;;;;;75.38;33.20;;;;;;;3.16;96.29;103609.03;6099001;19;20012;-74
2023/02/14 08:53:03;;;;;;;77.28;32.45;;;;;;;3.25;96.44;103611.97;6096397;19;20022;-75
2023/02/14 08:55:12;;;;;;;82.80;34.53;;;;;;;3.41;96.23;103609.03;6095991;19;20010;-75
2023/02/14 08:57:17;;;;;;;84.20;34.28;;;;;;;3.56;95.89;103605.19;6095803;19;20070;-76
2023/02/14 08:59:22;;;;;;;74.82;34.92;;;;;;;3.60;95.55;103610.53;6100813;19;20434;-76
2023/02/14 09:01:27;;;;;;;73.35;35.35;;;;;;;3.66;95.50;103602.94;6097530;19;20025;-76
2023/02/14 09:03:36;;;;;;;82.95;37.67;;;;;;;3.82;95.10;103599.13;6097701;19;20333;-77
2023/02/14 09:05:42;;;;;;;91.00;38.28;;;;;;;3.98;94.91;103597.88;6096964;19;20008;-76
2023/02/14 09:07:47;;;;;;;92.32;37.83;;;;;;;4.15;94.22;103606.19;6074645;19;20010;-76
2023/02/14 09:09:51;;;;;;;84.30;38.63;;;;;;;4.22;94.29;103607.28;6095246;19;20440;-75
2023/02/14 09:11:59;;;;;;;87.38;37.97;;;;;;;4.35;94.04;103604.22;6077898;19;20042;-76
2023/02/14 09:14:04;;;;;;;81.03;37.00;;;;;;;4.45;93.85;103606.25;6095290;19;20011;-75
2023/02/14 09:16:10;;;;;;;86.40;39.58;;;;;;;4.58;93.40;103603.16;6097391;19;20027;-77
2023/02/14 09:18:16;;;;;;;81.65;38.67;;;;;;;4.69;93.05;103595.66;6099122;19;20152;-76
2023/02/14 09:20:21;;;;;;;77.40;36.92;;;;;;;4.84;92.90;103608.22;6101549;19;20317;-76
2023/02/14 09:22:26;;;;;;;77.90;36.88;;;;;;;4.93;93.28;103597.19;6098811;19;20014;-75
2023/02/14 09:24:32;;;;;;;87.15;43.03;;;;;;;5.13;91.51;103600.31;6102261;19;20475;-77
2023/02/14 09:26:40;;;;;;;89.68;40.45;;;;;;;5.23;90.84;103600.59;6101237;19;20003;-76
2023/02/14 09:28:52;;;;;;;89.22;39.20;;;;;;;5.34;90.64;103598.25;6100546;19;20475;-74
2023/02/14 09:30:56;;;;;;;86.18;39.72;;;;;;;5.44;91.03;103601.97;6096808;19;20933;-74
2023/02/14 09:33:05;;;;;;;92.97;42.90;;;;;;;5.58;90.19;103600.63;6097044;19;20009;-73
2023/02/14 09:35:10;;;;;;;99.45;42.38;;;;;;;5.64;89.11;103598.16;6097406;19;20047;-74
2023/02/14 09:37:13;;;;;;;83.63;38.97;;;;;;;5.82;89.36;103594.19;6096977;19;20014;-74
2023/02/14 09:39:18;;;;;;;91.85;42.63;;;;;;;5.98;88.34;103593.75;6096804;19;20053;-76
2023/02/14 09:41:49;;;;;;;94.20;42.80;;;;;;;6.06;88.16;103596.56;6093920;19;20014;-76
2023/02/14 09:44:01;;;;;;;88.10;41.47;;;;;;;6.23;87.38;103603.00;6092259;19;20014;-76
2023/02/14 09:46:08;;;;;;;84.18;39.22;;;;;;;6.26;86.83;103597.84;6101533;19;20010;-77
2023/02/14 09:48:22;;;;;;;87.28;40.50;;;;;;;6.45;87.32;103591.31;6100477;19;20010;-76
2023/02/14 09:50:33;;;;;;;77.82;38.92;;;;;;;6.52;86.64;103593.19;6101494;19;20447;-78
2023/02/14 09:52:38;;;;;;;73.88;34.85;;;;;;;6.60;86.12;103593.34;6096791;19;20014;-76
2023/02/14 09:54:45;;;;;;;79.20;37.05;;;;;;;6.70;85.08;103595.28;6102981;19;20010;-77
2023/02/14 09:56:59;;;;;;;74.05;37.65;;;;;;;6.91;84.74;103594.81;6102851;19;20028;-77
2023/02/14 09:59:11;;;;;;;69.32;33.05;;;;;;;7.09;82.66;103593.41;6105567;19;20361;-77
2023/02/14 10:01:22;;;;;;;66.57;32.45;;;;;;;7.28;81.95;103595.50;6102488;19;20013;-76
2023/02/14 10:03:58;;;;;;;72.28;31.27;;;;;;;7.43;79.87;103597.50;6101578;19;20475;-73
2023/02/14 10:06:17;;;;;;;61.17;31.08;;;;;;;7.50;79.96;103595.84;6104159;19;20007;-73
2023/02/14 10:08:36;;;;;;;65.15;29.38;;;;;;;7.56;78.70;103602.09;6102482;19;20019;-74